sensor_id;sensor_type;location;lat;lon;timestamp;P1;durP1;ratioP1;P2;durP2;ratioP2
56242;SDS011;42155;53.096;23.226;2023-03-03T00:00:40;35.15;;;14.93;;
56242;SDS011;42155;53.096;23.226;2023-03-03T00:02:41;29.67;;;14.25;;
56242;SDS011;42155;53.096;23.226;2023-03-03T00:04:41;32.97;;;14.77;;
56242;SDS011;42155;53.096;23.226;2023-03-03T00:06:43;29.80;;;13.73;;
56242;SDS011;42155;53.096;23.226;2023-03-03T00:08:44;30.17;;;13.20;;
56242;SDS011;42155;53.096;23.226;2023-03-03T00:10:44;30.90;;;13.82;;
56242;SDS011;42155;53.096;23.226;2023-03-03T00:12:46;32.00;;;14.40;;
56242;SDS011;42155;53.096;23.226;2023-03-03T00:14:48;31.55;;;14.27;;
56242;SDS011;42155;53.096;23.226;2023-03-03T00:16:48;30.02;;;13.93;;
56242;SDS011;42155;53.096;23.226;2023-03-03T00:18:48;26.58;;;13.18;;
56242;SDS011;42155;53.096;23.226;2023-03-03T00:20:54;31.40;;;13.57;;
56242;SDS011;42155;53.096;23.226;2023-03-03T00:23:13;37.97;;;15.18;;
56242;SDS011;42155;53.096;23.226;2023-03-03T00:25:32;27.67;;;13.57;;
56242;SDS011;42155;53.096;23.226;2023-03-03T00:27:33;31.42;;;13.07;;
56242;SDS011;42155;53.096;23.226;2023-03-03T00:29:35;30.63;;;13.82;;
56242;SDS011;42155;53.096;23.226;2023-03-03T00:31:39;28.70;;;13.50;;
56242;SDS011;42155;53.096;23.226;2023-03-03T00:33:42;28.83;;;14.68;;
56242;SDS011;42155;53.096;23.226;2023-03-03T00:35:47;30.17;;;13.95;;
56242;SDS011;42155;53.096;23.226;2023-03-03T00:37:47;31.30;;;14.35;;
56242;SDS011;42155;53.096;23.226;2023-03-03T00:40:41;31.08;;;14.35;;
56242;SDS011;42155;53.096;23.226;2023-03-03T00:42:25;28.77;;;13.77;;
56242;SDS011;42155;53.096;23.226;2023-03-03T00:46:43;31.25;;;14.07;;
56242;SDS011;42155;53.096;23.226;2023-03-03T00:48:43;31.23;;;14.40;;
56242;SDS011;42155;53.096;23.226;2023-03-03T00:50:45;30.95;;;14.40;;
56242;SDS011;42155;53.096;23.226;2023-03-03T00:52:58;27.65;;;14.15;;
56242;SDS011;42155;53.096;23.226;2023-03-03T00:54:58;32.47;;;14.25;;
56242;SDS011;42155;53.096;23.226;2023-03-03T00:56:58;33.08;;;15.48;;
56242;SDS011;42155;53.096;23.226;2023-03-03T00:58:59;32.30;;;15.63;;
56242;SDS011;42155;53.096;23.226;2023-03-03T01:00:59;31.65;;;14.77;;
56242;SDS011;42155;53.096;23.226;2023-03-03T01:03:04;31.30;;;14.85;;
56242;SDS011;42155;53.096;23.226;2023-03-03T01:05:06;31.17;;;14.88;;
56242;SDS011;42155;53.096;23.226;2023-03-03T01:07:09;29.77;;;13.32;;
56242;SDS011;42155;53.096;23.226;2023-03-03T01:09:09;33.58;;;14.60;;
56242;SDS011;42155;53.096;23.226;2023-03-03T01:11:14;33.65;;;15.50;;
56242;SDS011;42155;53.096;23.226;2023-03-03T01:13:19;32.67;;;13.88;;
56242;SDS011;42155;53.096;23.226;2023-03-03T01:15:20;32.53;;;14.43;;
56242;SDS011;42155;53.096;23.226;2023-03-03T01:17:21;32.20;;;14.13;;
56242;SDS011;42155;53.096;23.226;2023-03-03T01:19:21;31.58;;;14.20;;
56242;SDS011;42155;53.096;23.226;2023-03-03T01:21:21;33.78;;;14.18;;
56242;SDS011;42155;53.096;23.226;2023-03-03T01:23:22;31.45;;;15.32;;
56242;SDS011;42155;53.096;23.226;2023-03-03T01:25:22;33.38;;;14.13;;
56242;SDS011;42155;53.096;23.226;2023-03-03T01:27:22;36.65;;;14.38;;
56242;SDS011;42155;53.096;23.226;2023-03-03T01:29:23;33.58;;;15.68;;
56242;SDS011;42155;53.096;23.226;2023-03-03T01:31:23;31.02;;;14.40;;
56242;SDS011;42155;53.096;23.226;2023-03-03T01:33:24;33.40;;;15.05;;
56242;SDS011;42155;53.096;23.226;2023-03-03T01:35:24;35.45;;;15.57;;
56242;SDS011;42155;53.096;23.226;2023-03-03T01:37:24;31.80;;;15.27;;
56242;SDS011;42155;53.096;23.226;2023-03-03T01:39:25;26.65;;;14.20;;
56242;SDS011;42155;53.096;23.226;2023-03-03T01:41:26;35.60;;;15.57;;
56242;SDS011;42155;53.096;23.226;2023-03-03T01:43:27;36.28;;;16.25;;
56242;SDS011;42155;53.096;23.226;2023-03-03T01:45:43;34.30;;;16.77;;
56242;SDS011;42155;53.096;23.226;2023-03-03T01:48:22;39.45;;;17.92;;
56242;SDS011;42155;53.096;23.226;2023-03-03T01:50:35;36.88;;;16.88;;
56242;SDS011;42155;53.096;23.226;2023-03-03T01:52:41;34.97;;;16.35;;
56242;SDS011;42155;53.096;23.226;2023-03-03T01:54:50;40.88;;;18.15;;
56242;SDS011;42155;53.096;23.226;2023-03-03T01:56:55;35.45;;;16.17;;
56242;SDS011;42155;53.096;23.226;2023-03-03T01:59:07;34.17;;;16.02;;
56242;SDS011;42155;53.096;23.226;2023-03-03T02:01:18;35.78;;;16.05;;
56242;SDS011;42155;53.096;23.226;2023-03-03T02:03:21;30.88;;;15.35;;
56242;SDS011;42155;53.096;23.226;2023-03-03T02:05:23;30.88;;;14.70;;
56242;SDS011;42155;53.096;23.226;2023-03-03T02:07:24;33.15;;;15.52;;
56242;SDS011;42155;53.096;23.226;2023-03-03T02:09:31;36.45;;;14.55;;
56242;SDS011;42155;53.096;23.226;2023-03-03T02:11:39;32.47;;;14.93;;
56242;SDS011;42155;53.096;23.226;2023-03-03T02:13:43;37.55;;;16.27;;
56242;SDS011;42155;53.096;23.226;2023-03-03T02:15:43;32.30;;;15.20;;
56242;SDS011;42155;53.096;23.226;2023-03-03T02:17:43;33.40;;;15.10;;
56242;SDS011;42155;53.096;23.226;2023-03-03T02:22:11;34.38;;;14.55;;
56242;SDS011;42155;53.096;23.226;2023-03-03T02:24:26;36.42;;;16.08;;
56242;SDS011;42155;53.096;23.226;2023-03-03T02:26:34;31.45;;;14.70;;
56242;SDS011;42155;53.096;23.226;2023-03-03T02:28:38;36.33;;;15.35;;
56242;SDS011;42155;53.096;23.226;2023-03-03T02:30:39;33.38;;;15.57;;
56242;SDS011;42155;53.096;23.226;2023-03-03T02:32:40;32.60;;;14.93;;
56242;SDS011;42155;53.096;23.226;2023-03-03T02:34:50;36.72;;;16.08;;
56242;SDS011;42155;53.096;23.226;2023-03-03T02:41:12;35.75;;;15.43;;
56242;SDS011;42155;53.096;23.226;2023-03-03T02:43:15;30.73;;;14.15;;
56242;SDS011;42155;53.096;23.226;2023-03-03T02:45:19;36.70;;;16.25;;
56242;SDS011;42155;53.096;23.226;2023-03-03T02:47:21;35.45;;;16.88;;
56242;SDS011;42155;53.096;23.226;2023-03-03T02:49:25;34.53;;;15.98;;
56242;SDS011;42155;53.096;23.226;2023-03-03T02:51:27;39.20;;;15.73;;
56242;SDS011;42155;53.096;23.226;2023-03-03T02:53:27;30.70;;;14.65;;
56242;SDS011;42155;53.096;23.226;2023-03-03T02:55:28;33.38;;;15.25;;
56242;SDS011;42155;53.096;23.226;2023-03-03T02:57:28;34.17;;;15.90;;
56242;SDS011;42155;53.096;23.226;2023-03-03T02:59:29;33.60;;;16.35;;
56242;SDS011;42155;53.096;23.226;2023-03-03T03:01:29;38.72;;;17.30;;
56242;SDS011;42155;53.096;23.226;2023-03-03T03:03:30;33.22;;;15.65;;
56242;SDS011;42155;53.096;23.226;2023-03-03T03:05:30;40.10;;;16.50;;
56242;SDS011;42155;53.096;23.226;2023-03-03T03:07:30;37.88;;;15.90;;
56242;SDS011;42155;53.096;23.226;2023-03-03T03:09:31;35.20;;;15.57;;
56242;SDS011;42155;53.096;23.226;2023-03-03T03:11:31;34.20;;;15.70;;
56242;SDS011;42155;53.096;23.226;2023-03-03T03:13:32;37.17;;;15.88;;
56242;SDS011;42155;53.096;23.226;2023-03-03T03:15:34;38.42;;;17.45;;
56242;SDS011;42155;53.096;23.226;2023-03-03T03:17:37;35.58;;;16.73;;
56242;SDS011;42155;53.096;23.226;2023-03-03T03:19:38;31.13;;;14.95;;
56242;SDS011;42155;53.096;23.226;2023-03-03T03:21:39;39.42;;;16.75;;
56242;SDS011;42155;53.096;23.226;2023-03-03T03:23:39;35.55;;;16.85;;
56242;SDS011;42155;53.096;23.226;2023-03-03T03:25:39;35.90;;;17.45;;
56242;SDS011;42155;53.096;23.226;2023-03-03T03:27:40;41.95;;;17.45;;
56242;SDS011;42155;53.096;23.226;2023-03-03T03:29:40;37.83;;;16.67;;
56242;SDS011;42155;53.096;23.226;2023-03-03T03:31:40;39.83;;;16.73;;
56242;SDS011;42155;53.096;23.226;2023-03-03T03:33:40;37.75;;;17.05;;
56242;SDS011;42155;53.096;23.226;2023-03-03T03:35:41;38.05;;;16.70;;
56242;SDS011;42155;53.096;23.226;2023-03-03T03:37:42;40.00;;;17.52;;
56242;SDS011;42155;53.096;23.226;2023-03-03T03:39:43;40.00;;;18.33;;
56242;SDS011;42155;53.096;23.226;2023-03-03T03:41:43;37.50;;;18.30;;
56242;SDS011;42155;53.096;23.226;2023-03-03T03:43:43;41.40;;;18.45;;
56242;SDS011;42155;53.096;23.226;2023-03-03T03:45:44;49.95;;;20.10;;
56242;SDS011;42155;53.096;23.226;2023-03-03T03:47:44;45.35;;;19.70;;
56242;SDS011;42155;53.096;23.226;2023-03-03T03:49:45;42.35;;;18.13;;
56242;SDS011;42155;53.096;23.226;2023-03-03T03:51:45;40.90;;;18.02;;
56242;SDS011;42155;53.096;23.226;2023-03-03T03:53:45;40.67;;;18.00;;
56242;SDS011;42155;53.096;23.226;2023-03-03T03:55:46;38.83;;;18.63;;
56242;SDS011;42155;53.096;23.226;2023-03-03T03:57:46;39.60;;;17.35;;
56242;SDS011;42155;53.096;23.226;2023-03-03T03:59:48;40.45;;;17.83;;
56242;SDS011;42155;53.096;23.226;2023-03-03T04:01:49;41.58;;;18.83;;
56242;SDS011;42155;53.096;23.226;2023-03-03T04:03:49;47.00;;;19.73;;
56242;SDS011;42155;53.096;23.226;2023-03-03T04:05:51;49.15;;;20.17;;
56242;SDS011;42155;53.096;23.226;2023-03-03T04:07:52;43.47;;;18.60;;
56242;SDS011;42155;53.096;23.226;2023-03-03T04:09:52;44.30;;;18.38;;
56242;SDS011;42155;53.096;23.226;2023-03-03T04:11:52;40.47;;;17.95;;
56242;SDS011;42155;53.096;23.226;2023-03-03T04:13:53;46.25;;;19.30;;
56242;SDS011;42155;53.096;23.226;2023-03-03T04:15:53;46.63;;;20.20;;
56242;SDS011;42155;53.096;23.226;2023-03-03T04:17:53;42.45;;;18.67;;
56242;SDS011;42155;53.096;23.226;2023-03-03T04:19:54;43.40;;;19.40;;
56242;SDS011;42155;53.096;23.226;2023-03-03T04:21:54;43.20;;;18.48;;
56242;SDS011;42155;53.096;23.226;2023-03-03T04:23:54;45.92;;;19.48;;
56242;SDS011;42155;53.096;23.226;2023-03-03T04:25:55;44.67;;;19.15;;
56242;SDS011;42155;53.096;23.226;2023-03-03T04:27:55;47.33;;;20.08;;
56242;SDS011;42155;53.096;23.226;2023-03-03T04:29:55;44.72;;;20.00;;
56242;SDS011;42155;53.096;23.226;2023-03-03T04:31:56;47.75;;;19.67;;
56242;SDS011;42155;53.096;23.226;2023-03-03T04:33:56;45.13;;;18.90;;
56242;SDS011;42155;53.096;23.226;2023-03-03T04:35:56;50.03;;;21.00;;
56242;SDS011;42155;53.096;23.226;2023-03-03T04:37:57;46.40;;;18.48;;
56242;SDS011;42155;53.096;23.226;2023-03-03T04:39:57;47.67;;;20.00;;
56242;SDS011;42155;53.096;23.226;2023-03-03T04:41:57;47.72;;;19.98;;
56242;SDS011;42155;53.096;23.226;2023-03-03T04:43:58;43.55;;;17.77;;
56242;SDS011;42155;53.096;23.226;2023-03-03T04:45:58;48.95;;;20.02;;
56242;SDS011;42155;53.096;23.226;2023-03-03T04:47:58;62.22;;;23.75;;
56242;SDS011;42155;53.096;23.226;2023-03-03T04:49:59;62.95;;;24.05;;
56242;SDS011;42155;53.096;23.226;2023-03-03T04:51:59;58.90;;;23.20;;
56242;SDS011;42155;53.096;23.226;2023-03-03T04:53:59;61.00;;;22.55;;
56242;SDS011;42155;53.096;23.226;2023-03-03T04:56:00;49.80;;;19.58;;
56242;SDS011;42155;53.096;23.226;2023-03-03T04:58:00;48.90;;;20.67;;
56242;SDS011;42155;53.096;23.226;2023-03-03T05:00:00;50.97;;;22.10;;
56242;SDS011;42155;53.096;23.226;2023-03-03T05:02:01;42.78;;;18.63;;
56242;SDS011;42155;53.096;23.226;2023-03-03T05:04:01;42.70;;;17.92;;
56242;SDS011;42155;53.096;23.226;2023-03-03T05:06:02;49.25;;;19.77;;
56242;SDS011;42155;53.096;23.226;2023-03-03T05:08:02;44.28;;;20.38;;
56242;SDS011;42155;53.096;23.226;2023-03-03T05:10:03;47.58;;;18.70;;
56242;SDS011;42155;53.096;23.226;2023-03-03T05:12:04;48.28;;;20.27;;
56242;SDS011;42155;53.096;23.226;2023-03-03T05:14:04;50.03;;;19.73;;
56242;SDS011;42155;53.096;23.226;2023-03-03T05:16:05;46.70;;;19.90;;
56242;SDS011;42155;53.096;23.226;2023-03-03T05:18:05;49.40;;;22.20;;
56242;SDS011;42155;53.096;23.226;2023-03-03T05:20:06;45.97;;;20.60;;
56242;SDS011;42155;53.096;23.226;2023-03-03T05:22:07;48.03;;;20.40;;
56242;SDS011;42155;53.096;23.226;2023-03-03T05:24:08;49.75;;;21.63;;
56242;SDS011;42155;53.096;23.226;2023-03-03T05:26:09;45.40;;;19.60;;
56242;SDS011;42155;53.096;23.226;2023-03-03T05:28:09;46.67;;;19.77;;
56242;SDS011;42155;53.096;23.226;2023-03-03T05:30:10;49.17;;;20.52;;
56242;SDS011;42155;53.096;23.226;2023-03-03T05:32:11;46.42;;;20.00;;
56242;SDS011;42155;53.096;23.226;2023-03-03T05:34:11;47.85;;;20.25;;
56242;SDS011;42155;53.096;23.226;2023-03-03T05:36:11;42.05;;;19.17;;
56242;SDS011;42155;53.096;23.226;2023-03-03T05:38:12;46.40;;;20.02;;
56242;SDS011;42155;53.096;23.226;2023-03-03T05:40:13;46.22;;;19.55;;
56242;SDS011;42155;53.096;23.226;2023-03-03T05:42:13;50.25;;;21.23;;
56242;SDS011;42155;53.096;23.226;2023-03-03T05:44:13;45.28;;;20.10;;
56242;SDS011;42155;53.096;23.226;2023-03-03T05:46:14;44.88;;;19.27;;
56242;SDS011;42155;53.096;23.226;2023-03-03T05:48:14;51.47;;;21.33;;
56242;SDS011;42155;53.096;23.226;2023-03-03T05:50:15;45.67;;;20.63;;
56242;SDS011;42155;53.096;23.226;2023-03-03T05:52:15;47.33;;;20.08;;
56242;SDS011;42155;53.096;23.226;2023-03-03T05:54:16;43.58;;;18.90;;
56242;SDS011;42155;53.096;23.226;2023-03-03T05:56:16;47.55;;;19.92;;
56242;SDS011;42155;53.096;23.226;2023-03-03T05:58:16;39.60;;;19.52;;
56242;SDS011;42155;53.096;23.226;2023-03-03T06:00:17;46.60;;;20.55;;
56242;SDS011;42155;53.096;23.226;2023-03-03T06:02:17;46.45;;;20.58;;
56242;SDS011;42155;53.096;23.226;2023-03-03T06:04:18;46.55;;;20.20;;
56242;SDS011;42155;53.096;23.226;2023-03-03T06:06:18;48.40;;;21.98;;
56242;SDS011;42155;53.096;23.226;2023-03-03T06:08:18;49.55;;;21.63;;
56242;SDS011;42155;53.096;23.226;2023-03-03T06:10:19;45.75;;;21.48;;
56242;SDS011;42155;53.096;23.226;2023-03-03T06:12:19;49.80;;;22.58;;
56242;SDS011;42155;53.096;23.226;2023-03-03T06:14:20;49.28;;;22.30;;
56242;SDS011;42155;53.096;23.226;2023-03-03T06:16:21;58.08;;;23.63;;
56242;SDS011;42155;53.096;23.226;2023-03-03T06:18:21;42.97;;;21.15;;
56242;SDS011;42155;53.096;23.226;2023-03-03T06:20:22;53.88;;;24.27;;
56242;SDS011;42155;53.096;23.226;2023-03-03T06:22:22;55.65;;;23.73;;
56242;SDS011;42155;53.096;23.226;2023-03-03T06:24:22;54.67;;;24.65;;
56242;SDS011;42155;53.096;23.226;2023-03-03T06:26:23;54.80;;;23.45;;
56242;SDS011;42155;53.096;23.226;2023-03-03T06:28:23;54.08;;;23.20;;
56242;SDS011;42155;53.096;23.226;2023-03-03T06:30:23;51.85;;;22.05;;
56242;SDS011;42155;53.096;23.226;2023-03-03T06:32:24;49.58;;;21.70;;
56242;SDS011;42155;53.096;23.226;2023-03-03T06:34:24;58.38;;;22.92;;
56242;SDS011;42155;53.096;23.226;2023-03-03T06:36:24;52.20;;;23.23;;
56242;SDS011;42155;53.096;23.226;2023-03-03T06:38:25;56.15;;;22.85;;
56242;SDS011;42155;53.096;23.226;2023-03-03T06:40:25;46.47;;;21.67;;
56242;SDS011;42155;53.096;23.226;2023-03-03T06:42:26;57.78;;;22.15;;
56242;SDS011;42155;53.096;23.226;2023-03-03T06:44:26;50.25;;;22.38;;
56242;SDS011;42155;53.096;23.226;2023-03-03T06:46:26;47.92;;;20.35;;
56242;SDS011;42155;53.096;23.226;2023-03-03T06:48:27;45.97;;;20.13;;
56242;SDS011;42155;53.096;23.226;2023-03-03T06:50:28;42.15;;;18.90;;
56242;SDS011;42155;53.096;23.226;2023-03-03T06:52:29;38.00;;;18.10;;
56242;SDS011;42155;53.096;23.226;2023-03-03T06:54:29;39.10;;;16.85;;
56242;SDS011;42155;53.096;23.226;2023-03-03T06:56:29;35.58;;;15.68;;
56242;SDS011;42155;53.096;23.226;2023-03-03T06:58:34;31.35;;;15.38;;
56242;SDS011;42155;53.096;23.226;2023-03-03T07:00:35;30.27;;;14.80;;
56242;SDS011;42155;53.096;23.226;2023-03-03T07:02:35;31.23;;;14.27;;
56242;SDS011;42155;53.096;23.226;2023-03-03T07:04:35;29.67;;;14.90;;
56242;SDS011;42155;53.096;23.226;2023-03-03T07:06:36;31.67;;;14.55;;
56242;SDS011;42155;53.096;23.226;2023-03-03T07:08:36;33.28;;;15.90;;
56242;SDS011;42155;53.096;23.226;2023-03-03T07:10:38;28.02;;;13.07;;
56242;SDS011;42155;53.096;23.226;2023-03-03T07:12:39;30.45;;;13.13;;
56242;SDS011;42155;53.096;23.226;2023-03-03T07:14:43;30.35;;;14.93;;
56242;SDS011;42155;53.096;23.226;2023-03-03T07:16:55;29.60;;;12.45;;
56242;SDS011;42155;53.096;23.226;2023-03-03T07:18:59;28.48;;;13.88;;
56242;SDS011;42155;53.096;23.226;2023-03-03T07:21:22;29.27;;;13.73;;
56242;SDS011;42155;53.096;23.226;2023-03-03T07:23:22;33.70;;;14.88;;
56242;SDS011;42155;53.096;23.226;2023-03-03T07:25:32;28.48;;;13.40;;
56242;SDS011;42155;53.096;23.226;2023-03-03T07:27:33;26.27;;;13.13;;
56242;SDS011;42155;53.096;23.226;2023-03-03T07:29:36;33.95;;;13.98;;
56242;SDS011;42155;53.096;23.226;2023-03-03T07:31:40;30.58;;;13.40;;
56242;SDS011;42155;53.096;23.226;2023-03-03T07:33:44;28.70;;;12.50;;
56242;SDS011;42155;53.096;23.226;2023-03-03T07:35:45;28.08;;;13.07;;
56242;SDS011;42155;53.096;23.226;2023-03-03T07:37:46;29.83;;;14.70;;
56242;SDS011;42155;53.096;23.226;2023-03-03T07:39:46;28.20;;;13.73;;
56242;SDS011;42155;53.096;23.226;2023-03-03T07:41:49;31.52;;;14.32;;
56242;SDS011;42155;53.096;23.226;2023-03-03T07:43:50;25.55;;;13.07;;
56242;SDS011;42155;53.096;23.226;2023-03-03T07:45:52;32.15;;;14.30;;
56242;SDS011;42155;53.096;23.226;2023-03-03T07:48:21;29.23;;;13.27;;
56242;SDS011;42155;53.096;23.226;2023-03-03T07:50:25;25.88;;;12.93;;
56242;SDS011;42155;53.096;23.226;2023-03-03T07:52:39;28.67;;;13.88;;
56242;SDS011;42155;53.096;23.226;2023-03-03T07:54:42;29.55;;;13.07;;
56242;SDS011;42155;53.096;23.226;2023-03-03T07:56:44;25.38;;;13.00;;
56242;SDS011;42155;53.096;23.226;2023-03-03T07:58:46;26.48;;;12.02;;
56242;SDS011;42155;53.096;23.226;2023-03-03T08:03:24;26.40;;;12.65;;
56242;SDS011;42155;53.096;23.226;2023-03-03T08:07:28;27.08;;;12.90;;
56242;SDS011;42155;53.096;23.226;2023-03-03T08:09:33;23.52;;;11.50;;
56242;SDS011;42155;53.096;23.226;2023-03-03T08:11:46;31.75;;;12.52;;
56242;SDS011;42155;53.096;23.226;2023-03-03T08:13:50;31.50;;;13.95;;
56242;SDS011;42155;53.096;23.226;2023-03-03T08:15:56;27.60;;;13.15;;
56242;SDS011;42155;53.096;23.226;2023-03-03T08:18:01;29.85;;;14.30;;
56242;SDS011;42155;53.096;23.226;2023-03-03T08:22:43;26.98;;;13.05;;
56242;SDS011;42155;53.096;23.226;2023-03-03T08:24:44;30.00;;;13.02;;
56242;SDS011;42155;53.096;23.226;2023-03-03T08:26:44;29.58;;;12.85;;
56242;SDS011;42155;53.096;23.226;2023-03-03T08:28:44;29.67;;;13.20;;
56242;SDS011;42155;53.096;23.226;2023-03-03T08:30:45;29.48;;;12.70;;
56242;SDS011;42155;53.096;23.226;2023-03-03T08:32:46;27.00;;;12.45;;
56242;SDS011;42155;53.096;23.226;2023-03-03T08:34:46;35.15;;;13.93;;
56242;SDS011;42155;53.096;23.226;2023-03-03T08:36:47;33.22;;;14.43;;
56242;SDS011;42155;53.096;23.226;2023-03-03T08:38:47;27.80;;;12.85;;
56242;SDS011;42155;53.096;23.226;2023-03-03T08:40:48;26.92;;;11.65;;
56242;SDS011;42155;53.096;23.226;2023-03-03T08:42:48;28.63;;;12.43;;
56242;SDS011;42155;53.096;23.226;2023-03-03T08:44:49;27.88;;;12.38;;
56242;SDS011;42155;53.096;23.226;2023-03-03T08:46:49;27.77;;;12.82;;
56242;SDS011;42155;53.096;23.226;2023-03-03T08:48:49;30.90;;;13.23;;
56242;SDS011;42155;53.096;23.226;2023-03-03T08:50:50;23.88;;;12.30;;
56242;SDS011;42155;53.096;23.226;2023-03-03T08:52:50;24.60;;;11.27;;
56242;SDS011;42155;53.096;23.226;2023-03-03T08:54:51;28.17;;;12.48;;
56242;SDS011;42155;53.096;23.226;2023-03-03T08:56:51;27.77;;;12.40;;
56242;SDS011;42155;53.096;23.226;2023-03-03T08:58:51;27.48;;;12.57;;
56242;SDS011;42155;53.096;23.226;2023-03-03T09:00:52;28.55;;;11.70;;
56242;SDS011;42155;53.096;23.226;2023-03-03T09:02:52;25.80;;;12.00;;
56242;SDS011;42155;53.096;23.226;2023-03-03T09:04:53;26.77;;;12.23;;
56242;SDS011;42155;53.096;23.226;2023-03-03T09:06:53;29.65;;;12.25;;
56242;SDS011;42155;53.096;23.226;2023-03-03T09:08:54;27.98;;;12.52;;
56242;SDS011;42155;53.096;23.226;2023-03-03T09:10:54;33.10;;;13.45;;
56242;SDS011;42155;53.096;23.226;2023-03-03T09:12:59;32.90;;;12.73;;
56242;SDS011;42155;53.096;23.226;2023-03-03T09:15:37;29.83;;;12.77;;
56242;SDS011;42155;53.096;23.226;2023-03-03T09:17:34;30.23;;;13.13;;
56242;SDS011;42155;53.096;23.226;2023-03-03T09:19:36;30.60;;;13.00;;
56242;SDS011;42155;53.096;23.226;2023-03-03T09:21:36;31.50;;;12.63;;
56242;SDS011;42155;53.096;23.226;2023-03-03T09:23:38;32.33;;;12.25;;
56242;SDS011;42155;53.096;23.226;2023-03-03T09:25:40;35.15;;;13.18;;
56242;SDS011;42155;53.096;23.226;2023-03-03T09:27:40;27.60;;;12.55;;
56242;SDS011;42155;53.096;23.226;2023-03-03T09:29:41;28.95;;;12.10;;
56242;SDS011;42155;53.096;23.226;2023-03-03T09:31:42;31.52;;;12.48;;
56242;SDS011;42155;53.096;23.226;2023-03-03T09:33:45;33.17;;;11.90;;
56242;SDS011;42155;53.096;23.226;2023-03-03T09:35:48;27.80;;;11.30;;
56242;SDS011;42155;53.096;23.226;2023-03-03T09:37:51;27.10;;;11.38;;
56242;SDS011;42155;53.096;23.226;2023-03-03T09:39:52;32.40;;;12.55;;
56242;SDS011;42155;53.096;23.226;2023-03-03T10:18:46;21.88;;;9.88;;
56242;SDS011;42155;53.096;23.226;2023-03-03T10:20:54;23.02;;;10.15;;
56242;SDS011;42155;53.096;23.226;2023-03-03T10:23:08;27.33;;;10.95;;
56242;SDS011;42155;53.096;23.226;2023-03-03T10:27:46;26.73;;;11.23;;
56242;SDS011;42155;53.096;23.226;2023-03-03T10:39:05;24.00;;;10.57;;
56242;SDS011;42155;53.096;23.226;2023-03-03T10:50:46;22.20;;;9.63;;
56242;SDS011;42155;53.096;23.226;2023-03-03T10:57:49;26.00;;;11.38;;
56242;SDS011;42155;53.096;23.226;2023-03-03T11:07:59;22.48;;;9.13;;
56242;SDS011;42155;53.096;23.226;2023-03-03T11:09:51;19.98;;;8.55;;
56242;SDS011;42155;53.096;23.226;2023-03-03T11:14:11;20.00;;;8.65;;
56242;SDS011;42155;53.096;23.226;2023-03-03T11:31:56;23.98;;;10.25;;
56242;SDS011;42155;53.096;23.226;2023-03-03T11:40:55;21.77;;;9.05;;
56242;SDS011;42155;53.096;23.226;2023-03-03T11:45:18;24.98;;;9.45;;
56242;SDS011;42155;53.096;23.226;2023-03-03T11:49:46;27.25;;;10.05;;
56242;SDS011;42155;53.096;23.226;2023-03-03T11:56:28;23.17;;;10.25;;
56242;SDS011;42155;53.096;23.226;2023-03-03T11:58:37;30.80;;;11.18;;
56242;SDS011;42155;53.096;23.226;2023-03-03T12:00:49;28.10;;;10.57;;
56242;SDS011;42155;53.096;23.226;2023-03-03T12:04:59;21.60;;;9.35;;
56242;SDS011;42155;53.096;23.226;2023-03-03T12:07:25;21.25;;;9.77;;
56242;SDS011;42155;53.096;23.226;2023-03-03T12:11:46;24.33;;;9.88;;
56242;SDS011;42155;53.096;23.226;2023-03-03T12:13:55;27.65;;;11.40;;
56242;SDS011;42155;53.096;23.226;2023-03-03T12:18:24;27.20;;;10.20;;
56242;SDS011;42155;53.096;23.226;2023-03-03T12:22:51;21.60;;;9.48;;
56242;SDS011;42155;53.096;23.226;2023-03-03T12:25:20;26.73;;;9.73;;
56242;SDS011;42155;53.096;23.226;2023-03-03T12:29:41;24.70;;;9.63;;
56242;SDS011;42155;53.096;23.226;2023-03-03T12:34:45;28.50;;;10.82;;
56242;SDS011;42155;53.096;23.226;2023-03-03T12:39:54;24.52;;;10.27;;
56242;SDS011;42155;53.096;23.226;2023-03-03T12:46:52;26.50;;;11.73;;
56242;SDS011;42155;53.096;23.226;2023-03-03T12:49:02;26.15;;;10.95;;
56242;SDS011;42155;53.096;23.226;2023-03-03T12:53:16;27.42;;;11.82;;
56242;SDS011;42155;53.096;23.226;2023-03-03T12:55:52;24.52;;;10.65;;
56242;SDS011;42155;53.096;23.226;2023-03-03T12:58:06;21.55;;;9.90;;
56242;SDS011;42155;53.096;23.226;2023-03-03T13:07:18;23.63;;;9.55;;
56242;SDS011;42155;53.096;23.226;2023-03-03T13:09:26;22.27;;;9.40;;
56242;SDS011;42155;53.096;23.226;2023-03-03T13:15:44;21.98;;;10.35;;
56242;SDS011;42155;53.096;23.226;2023-03-03T13:22:38;19.10;;;9.60;;
56242;SDS011;42155;53.096;23.226;2023-03-03T13:24:53;20.55;;;9.60;;
56242;SDS011;42155;53.096;23.226;2023-03-03T13:27:10;18.83;;;8.73;;
56242;SDS011;42155;53.096;23.226;2023-03-03T13:31:23;21.17;;;9.18;;
56242;SDS011;42155;53.096;23.226;2023-03-03T13:33:37;21.48;;;9.65;;
56242;SDS011;42155;53.096;23.226;2023-03-03T13:35:54;25.55;;;8.88;;
56242;SDS011;42155;53.096;23.226;2023-03-03T13:37:58;18.20;;;7.60;;
56242;SDS011;42155;53.096;23.226;2023-03-03T13:42:18;20.35;;;9.23;;
56242;SDS011;42155;53.096;23.226;2023-03-03T13:44:23;21.20;;;8.75;;
56242;SDS011;42155;53.096;23.226;2023-03-03T13:46:36;21.30;;;9.27;;
56242;SDS011;42155;53.096;23.226;2023-03-03T13:48:49;21.45;;;8.60;;
56242;SDS011;42155;53.096;23.226;2023-03-03T13:51:02;21.40;;;8.60;;
56242;SDS011;42155;53.096;23.226;2023-03-03T13:55:35;25.15;;;9.50;;
56242;SDS011;42155;53.096;23.226;2023-03-03T13:57:43;21.02;;;9.63;;
56242;SDS011;42155;53.096;23.226;2023-03-03T14:06:44;21.48;;;10.10;;
56242;SDS011;42155;53.096;23.226;2023-03-03T14:13:26;31.40;;;11.55;;
56242;SDS011;42155;53.096;23.226;2023-03-03T14:18:02;26.92;;;11.25;;
56242;SDS011;42155;53.096;23.226;2023-03-03T14:26:56;27.88;;;11.07;;
56242;SDS011;42155;53.096;23.226;2023-03-03T14:29:03;23.15;;;9.38;;
56242;SDS011;42155;53.096;23.226;2023-03-03T14:33:25;24.20;;;10.05;;
56242;SDS011;42155;53.096;23.226;2023-03-03T14:35:29;25.20;;;11.55;;
56242;SDS011;42155;53.096;23.226;2023-03-03T14:37:44;25.77;;;11.23;;
56242;SDS011;42155;53.096;23.226;2023-03-03T14:47:01;20.08;;;9.23;;
56242;SDS011;42155;53.096;23.226;2023-03-03T14:51:22;26.05;;;10.25;;
56242;SDS011;42155;53.096;23.226;2023-03-03T14:53:34;21.10;;;10.68;;
56242;SDS011;42155;53.096;23.226;2023-03-03T14:55:38;27.08;;;10.30;;
56242;SDS011;42155;53.096;23.226;2023-03-03T14:57:41;18.50;;;8.57;;
56242;SDS011;42155;53.096;23.226;2023-03-03T14:59:59;19.90;;;9.20;;
56242;SDS011;42155;53.096;23.226;2023-03-03T15:08:32;20.38;;;10.10;;
56242;SDS011;42155;53.096;23.226;2023-03-03T15:10:42;22.75;;;9.25;;
56242;SDS011;42155;53.096;23.226;2023-03-03T15:12:44;22.77;;;9.85;;
56242;SDS011;42155;53.096;23.226;2023-03-03T15:14:45;20.35;;;9.05;;
56242;SDS011;42155;53.096;23.226;2023-03-03T15:16:47;23.00;;;9.93;;
56242;SDS011;42155;53.096;23.226;2023-03-03T15:18:57;22.15;;;10.07;;
56242;SDS011;42155;53.096;23.226;2023-03-03T15:21:24;23.13;;;10.25;;